sensor_id;sensor_type;location;lat;lon;timestamp;P1;durP1;ratioP1;P2;durP2;ratioP2
22332;SDS011;11334;36.986;-121.936;2023-05-18T00:02:01;6.63;;;2.78;;
22332;SDS011;11334;36.986;-121.936;2023-05-18T00:04:29;5.63;;;3.17;;
22332;SDS011;11334;36.986;-121.936;2023-05-18T00:06:57;8.00;;;3.53;;
22332;SDS011;11334;36.986;-121.936;2023-05-18T00:09:31;5.30;;;3.03;;
22332;SDS011;11334;36.986;-121.936;2023-05-18T00:11:59;8.68;;;3.30;;
22332;SDS011;11334;36.986;-121.936;2023-05-18T00:14:27;5.85;;;2.78;;
22332;SDS011;11334;36.986;-121.936;2023-05-18T00:16:53;7.30;;;3.33;;
22332;SDS011;11334;36.986;-121.936;2023-05-18T00:19:21;6.75;;;3.63;;
22332;SDS011;11334;36.986;-121.936;2023-05-18T00:21:48;8.20;;;3.55;;
22332;SDS011;11334;36.986;-121.936;2023-05-18T00:24:16;5.88;;;3.42;;
22332;SDS011;11334;36.986;-121.936;2023-05-18T00:26:43;5.78;;;3.47;;
22332;SDS011;11334;36.986;-121.936;2023-05-18T00:29:11;7.82;;;3.80;;
22332;SDS011;11334;36.986;-121.936;2023-05-18T00:31:38;6.50;;;3.25;;
22332;SDS011;11334;36.986;-121.936;2023-05-18T00:34:05;7.35;;;3.45;;
22332;SDS011;11334;36.986;-121.936;2023-05-18T00:36:35;6.35;;;3.33;;
22332;SDS011;11334;36.986;-121.936;2023-05-18T00:39:03;9.32;;;3.58;;
22332;SDS011;11334;36.986;-121.936;2023-05-18T00:41:31;7.47;;;3.00;;
22332;SDS011;11334;36.986;-121.936;2023-05-18T00:43:58;6.53;;;3.40;;
22332;SDS011;11334;36.986;-121.936;2023-05-18T00:46:25;8.10;;;3.25;;
22332;SDS011;11334;36.986;-121.936;2023-05-18T00:48:53;9.35;;;3.22;;
22332;SDS011;11334;36.986;-121.936;2023-05-18T00:51:25;6.60;;;3.25;;
22332;SDS011;11334;36.986;-121.936;2023-05-18T00:53:52;9.00;;;3.30;;
22332;SDS011;11334;36.986;-121.936;2023-05-18T00:56:20;5.95;;;3.22;;
22332;SDS011;11334;36.986;-121.936;2023-05-18T00:58:48;8.48;;;3.33;;
22332;SDS011;11334;36.986;-121.936;2023-05-18T01:01:22;8.82;;;3.70;;
22332;SDS011;11334;36.986;-121.936;2023-05-18T01:03:58;6.90;;;3.17;;
22332;SDS011;11334;36.986;-121.936;2023-05-18T01:06:29;8.27;;;4.18;;
22332;SDS011;11334;36.986;-121.936;2023-05-18T01:09:06;11.77;;;4.32;;
22332;SDS011;11334;36.986;-121.936;2023-05-18T01:11:37;15.73;;;3.88;;
22332;SDS011;11334;36.986;-121.936;2023-05-18T01:14:19;8.70;;;3.90;;
22332;SDS011;11334;36.986;-121.936;2023-05-18T01:17:02;11.23;;;4.05;;
22332;SDS011;11334;36.986;-121.936;2023-05-18T01:19:59;9.90;;;4.70;;
22332;SDS011;11334;36.986;-121.936;2023-05-18T01:22:29;10.15;;;3.95;;
22332;SDS011;11334;36.986;-121.936;2023-05-18T01:25:46;9.35;;;4.22;;
22332;SDS011;11334;36.986;-121.936;2023-05-18T01:28:28;11.02;;;4.07;;
22332;SDS011;11334;36.986;-121.936;2023-05-18T01:30:58;9.20;;;4.10;;
22332;SDS011;11334;36.986;-121.936;2023-05-18T01:33:24;8.23;;;3.03;;
22332;SDS011;11334;36.986;-121.936;2023-05-18T01:35:51;10.85;;;3.92;;
22332;SDS011;11334;36.986;-121.936;2023-05-18T01:38:21;9.82;;;3.67;;
22332;SDS011;11334;36.986;-121.936;2023-05-18T01:43:30;7.70;;;3.38;;
22332;SDS011;11334;36.986;-121.936;2023-05-18T01:46:09;5.55;;;3.38;;
22332;SDS011;11334;36.986;-121.936;2023-05-18T01:48:52;6.95;;;3.90;;
22332;SDS011;11334;36.986;-121.936;2023-05-18T01:51:21;9.90;;;3.83;;
22332;SDS011;11334;36.986;-121.936;2023-05-18T01:53:56;7.05;;;3.65;;
22332;SDS011;11334;36.986;-121.936;2023-05-18T01:56:28;6.55;;;3.50;;
22332;SDS011;11334;36.986;-121.936;2023-05-18T01:58:56;9.18;;;3.60;;
22332;SDS011;11334;36.986;-121.936;2023-05-18T02:01:24;8.27;;;3.88;;
22332;SDS011;11334;36.986;-121.936;2023-05-18T02:03:50;7.50;;;3.90;;
22332;SDS011;11334;36.986;-121.936;2023-05-18T02:06:16;8.07;;;4.22;;
22332;SDS011;11334;36.986;-121.936;2023-05-18T02:08:42;8.80;;;3.70;;
22332;SDS011;11334;36.986;-121.936;2023-05-18T02:11:09;4.32;;;3.50;;
22332;SDS011;11334;36.986;-121.936;2023-05-18T02:13:35;10.00;;;4.45;;
22332;SDS011;11334;36.986;-121.936;2023-05-18T02:16:02;11.35;;;5.00;;
22332;SDS011;11334;36.986;-121.936;2023-05-18T02:18:28;9.73;;;4.50;;
22332;SDS011;11334;36.986;-121.936;2023-05-18T02:20:58;10.95;;;3.80;;
22332;SDS011;11334;36.986;-121.936;2023-05-18T02:23:25;8.32;;;3.58;;
22332;SDS011;11334;36.986;-121.936;2023-05-18T02:25:52;8.32;;;3.78;;
22332;SDS011;11334;36.986;-121.936;2023-05-18T02:28:21;7.30;;;3.60;;
22332;SDS011;11334;36.986;-121.936;2023-05-18T02:30:48;8.10;;;4.32;;
22332;SDS011;11334;36.986;-121.936;2023-05-18T02:33:14;8.88;;;3.75;;
22332;SDS011;11334;36.986;-121.936;2023-05-18T02:35:41;8.50;;;3.45;;
22332;SDS011;11334;36.986;-121.936;2023-05-18T02:38:08;6.45;;;3.28;;
22332;SDS011;11334;36.986;-121.936;2023-05-18T02:40:35;6.82;;;3.78;;
22332;SDS011;11334;36.986;-121.936;2023-05-18T02:43:01;10.45;;;4.15;;
22332;SDS011;11334;36.986;-121.936;2023-05-18T02:45:27;8.13;;;3.70;;
22332;SDS011;11334;36.986;-121.936;2023-05-18T02:47:53;9.20;;;3.85;;
22332;SDS011;11334;36.986;-121.936;2023-05-18T02:50:20;11.20;;;4.47;;
22332;SDS011;11334;36.986;-121.936;2023-05-18T02:52:46;13.75;;;4.40;;
22332;SDS011;11334;36.986;-121.936;2023-05-18T02:55:14;9.73;;;4.40;;
22332;SDS011;11334;36.986;-121.936;2023-05-18T02:57:41;12.32;;;4.30;;
22332;SDS011;11334;36.986;-121.936;2023-05-18T03:00:11;8.27;;;3.83;;
22332;SDS011;11334;36.986;-121.936;2023-05-18T03:02:40;10.50;;;4.72;;
22332;SDS011;11334;36.986;-121.936;2023-05-18T03:05:08;15.32;;;4.63;;
22332;SDS011;11334;36.986;-121.936;2023-05-18T03:07:34;14.45;;;4.70;;
22332;SDS011;11334;36.986;-121.936;2023-05-18T03:10:01;9.30;;;3.85;;
22332;SDS011;11334;36.986;-121.936;2023-05-18T03:12:28;8.27;;;4.25;;
22332;SDS011;11334;36.986;-121.936;2023-05-18T03:14:54;11.20;;;4.43;;
22332;SDS011;11334;36.986;-121.936;2023-05-18T03:17:21;11.80;;;4.43;;
22332;SDS011;11334;36.986;-121.936;2023-05-18T03:19:47;11.70;;;4.20;;
22332;SDS011;11334;36.986;-121.936;2023-05-18T03:22:13;9.07;;;4.88;;
22332;SDS011;11334;36.986;-121.936;2023-05-18T03:24:39;10.43;;;4.65;;
22332;SDS011;11334;36.986;-121.936;2023-05-18T03:27:07;8.95;;;4.40;;
22332;SDS011;11334;36.986;-121.936;2023-05-18T03:29:33;11.23;;;4.20;;
22332;SDS011;11334;36.986;-121.936;2023-05-18T03:31:59;10.98;;;4.40;;
22332;SDS011;11334;36.986;-121.936;2023-05-18T03:34:26;9.77;;;4.07;;
22332;SDS011;11334;36.986;-121.936;2023-05-18T03:36:52;8.25;;;4.47;;
22332;SDS011;11334;36.986;-121.936;2023-05-18T03:39:19;11.77;;;4.65;;
22332;SDS011;11334;36.986;-121.936;2023-05-18T03:41:46;11.60;;;4.53;;
22332;SDS011;11334;36.986;-121.936;2023-05-18T03:44:12;13.23;;;5.10;;
22332;SDS011;11334;36.986;-121.936;2023-05-18T03:46:38;12.20;;;4.70;;
22332;SDS011;11334;36.986;-121.936;2023-05-18T03:49:04;12.40;;;5.60;;
22332;SDS011;11334;36.986;-121.936;2023-05-18T03:51:32;15.02;;;5.35;;
22332;SDS011;11334;36.986;-121.936;2023-05-18T03:53:58;20.08;;;6.68;;
22332;SDS011;11334;36.986;-121.936;2023-05-18T03:56:24;18.80;;;6.88;;
22332;SDS011;11334;36.986;-121.936;2023-05-18T03:58:51;15.18;;;6.43;;
22332;SDS011;11334;36.986;-121.936;2023-05-18T04:01:17;13.23;;;6.38;;
22332;SDS011;11334;36.986;-121.936;2023-05-18T04:03:44;13.88;;;5.60;;
22332;SDS011;11334;36.986;-121.936;2023-05-18T04:06:10;17.70;;;5.68;;
22332;SDS011;11334;36.986;-121.936;2023-05-18T04:08:36;11.20;;;4.95;;
22332;SDS011;11334;36.986;-121.936;2023-05-18T04:11:03;13.73;;;5.50;;
22332;SDS011;11334;36.986;-121.936;2023-05-18T04:13:30;12.20;;;5.50;;
22332;SDS011;11334;36.986;-121.936;2023-05-18T04:15:56;15.98;;;5.53;;
22332;SDS011;11334;36.986;-121.936;2023-05-18T04:18:23;14.43;;;4.78;;
22332;SDS011;11334;36.986;-121.936;2023-05-18T04:20:49;12.45;;;5.03;;
22332;SDS011;11334;36.986;-121.936;2023-05-18T04:23:15;9.63;;;4.65;;
22332;SDS011;11334;36.986;-121.936;2023-05-18T04:25:41;12.52;;;5.30;;
22332;SDS011;11334;36.986;-121.936;2023-05-18T04:28:08;13.60;;;5.05;;
22332;SDS011;11334;36.986;-121.936;2023-05-18T04:30:34;11.93;;;5.20;;
22332;SDS011;11334;36.986;-121.936;2023-05-18T04:33:01;11.48;;;5.05;;
22332;SDS011;11334;36.986;-121.936;2023-05-18T04:35:28;11.65;;;4.85;;
22332;SDS011;11334;36.986;-121.936;2023-05-18T04:37:56;14.82;;;5.25;;
22332;SDS011;11334;36.986;-121.936;2023-05-18T04:40:22;12.13;;;5.70;;
22332;SDS011;11334;36.986;-121.936;2023-05-18T04:42:49;16.27;;;5.50;;
22332;SDS011;11334;36.986;-121.936;2023-05-18T04:45:16;12.55;;;5.18;;
22332;SDS011;11334;36.986;-121.936;2023-05-18T04:47:44;15.15;;;5.07;;
22332;SDS011;11334;36.986;-121.936;2023-05-18T04:50:12;8.38;;;4.90;;
22332;SDS011;11334;36.986;-121.936;2023-05-18T04:52:40;7.90;;;5.10;;
22332;SDS011;11334;36.986;-121.936;2023-05-18T04:55:12;14.75;;;5.60;;
22332;SDS011;11334;36.986;-121.936;2023-05-18T04:57:39;14.75;;;6.03;;
22332;SDS011;11334;36.986;-121.936;2023-05-18T05:00:06;14.02;;;5.32;;
22332;SDS011;11334;36.986;-121.936;2023-05-18T05:02:34;13.40;;;5.30;;
22332;SDS011;11334;36.986;-121.936;2023-05-18T05:05:00;13.73;;;5.53;;
22332;SDS011;11334;36.986;-121.936;2023-05-18T05:07:26;15.43;;;5.68;;
22332;SDS011;11334;36.986;-121.936;2023-05-18T05:09:53;15.40;;;5.25;;
22332;SDS011;11334;36.986;-121.936;2023-05-18T05:12:19;12.48;;;5.78;;
22332;SDS011;11334;36.986;-121.936;2023-05-18T05:14:45;12.30;;;5.40;;
22332;SDS011;11334;36.986;-121.936;2023-05-18T05:17:11;8.25;;;5.35;;
22332;SDS011;11334;36.986;-121.936;2023-05-18T05:19:37;13.82;;;5.30;;
22332;SDS011;11334;36.986;-121.936;2023-05-18T05:22:05;17.35;;;5.00;;
22332;SDS011;11334;36.986;-121.936;2023-05-18T05:24:32;8.73;;;5.15;;
22332;SDS011;11334;36.986;-121.936;2023-05-18T05:26:58;12.90;;;5.40;;
22332;SDS011;11334;36.986;-121.936;2023-05-18T05:29:25;14.38;;;5.78;;
22332;SDS011;11334;36.986;-121.936;2023-05-18T05:31:52;11.88;;;5.63;;
22332;SDS011;11334;36.986;-121.936;2023-05-18T05:34:18;12.10;;;5.60;;
22332;SDS011;11334;36.986;-121.936;2023-05-18T05:36:46;11.13;;;4.72;;
22332;SDS011;11334;36.986;-121.936;2023-05-18T05:39:12;14.80;;;5.38;;
22332;SDS011;11334;36.986;-121.936;2023-05-18T05:41:38;20.08;;;5.55;;
22332;SDS011;11334;36.986;-121.936;2023-05-18T05:44:04;15.23;;;5.80;;
22332;SDS011;11334;36.986;-121.936;2023-05-18T05:46:31;15.18;;;5.97;;
22332;SDS011;11334;36.986;-121.936;2023-05-18T05:48:57;13.07;;;5.60;;
22332;SDS011;11334;36.986;-121.936;2023-05-18T05:51:23;20.27;;;6.40;;
22332;SDS011;11334;36.986;-121.936;2023-05-18T05:53:49;18.83;;;7.00;;
22332;SDS011;11334;36.986;-121.936;2023-05-18T05:56:15;17.95;;;6.65;;
22332;SDS011;11334;36.986;-121.936;2023-05-18T05:58:42;14.35;;;6.57;;
22332;SDS011;11334;36.986;-121.936;2023-05-18T06:01:08;14.02;;;5.80;;
22332;SDS011;11334;36.986;-121.936;2023-05-18T06:03:35;15.60;;;7.22;;
22332;SDS011;11334;36.986;-121.936;2023-05-18T06:06:01;12.93;;;5.78;;
22332;SDS011;11334;36.986;-121.936;2023-05-18T06:08:28;11.70;;;6.07;;
22332;SDS011;11334;36.986;-121.936;2023-05-18T06:10:54;12.90;;;7.88;;
22332;SDS011;11334;36.986;-121.936;2023-05-18T06:13:20;15.27;;;6.55;;
22332;SDS011;11334;36.986;-121.936;2023-05-18T06:15:47;19.10;;;6.90;;
22332;SDS011;11334;36.986;-121.936;2023-05-18T06:18:13;13.52;;;6.53;;
22332;SDS011;11334;36.986;-121.936;2023-05-18T06:20:39;16.67;;;6.95;;
22332;SDS011;11334;36.986;-121.936;2023-05-18T06:23:05;14.57;;;7.50;;
22332;SDS011;11334;36.986;-121.936;2023-05-18T06:25:32;13.63;;;7.32;;
22332;SDS011;11334;36.986;-121.936;2023-05-18T06:27:59;17.52;;;7.35;;
22332;SDS011;11334;36.986;-121.936;2023-05-18T06:30:25;20.90;;;8.18;;
22332;SDS011;11334;36.986;-121.936;2023-05-18T06:32:52;17.83;;;7.82;;
22332;SDS011;11334;36.986;-121.936;2023-05-18T06:35:18;13.90;;;7.43;;
22332;SDS011;11334;36.986;-121.936;2023-05-18T06:37:44;13.82;;;6.93;;
22332;SDS011;11334;36.986;-121.936;2023-05-18T06:40:10;17.45;;;6.88;;
22332;SDS011;11334;36.986;-121.936;2023-05-18T06:42:37;12.88;;;6.82;;
22332;SDS011;11334;36.986;-121.936;2023-05-18T06:45:03;11.07;;;6.72;;
22332;SDS011;11334;36.986;-121.936;2023-05-18T06:47:30;16.85;;;7.65;;
22332;SDS011;11334;36.986;-121.936;2023-05-18T06:49:56;16.73;;;8.05;;
22332;SDS011;11334;36.986;-121.936;2023-05-18T06:52:22;13.15;;;6.95;;
22332;SDS011;11334;36.986;-121.936;2023-05-18T06:54:49;15.48;;;6.85;;
22332;SDS011;11334;36.986;-121.936;2023-05-18T06:57:15;17.48;;;8.70;;
22332;SDS011;11334;36.986;-121.936;2023-05-18T06:59:42;14.88;;;7.70;;
22332;SDS011;11334;36.986;-121.936;2023-05-18T07:02:08;19.13;;;7.90;;
22332;SDS011;11334;36.986;-121.936;2023-05-18T07:04:34;21.40;;;6.82;;
22332;SDS011;11334;36.986;-121.936;2023-05-18T07:07:01;11.10;;;7.07;;
22332;SDS011;11334;36.986;-121.936;2023-05-18T07:09:27;14.00;;;6.90;;
22332;SDS011;11334;36.986;-121.936;2023-05-18T07:11:53;14.88;;;7.65;;
22332;SDS011;11334;36.986;-121.936;2023-05-18T07:14:19;15.48;;;8.38;;
22332;SDS011;11334;36.986;-121.936;2023-05-18T07:16:46;16.52;;;8.85;;
22332;SDS011;11334;36.986;-121.936;2023-05-18T07:19:12;16.58;;;8.35;;
22332;SDS011;11334;36.986;-121.936;2023-05-18T07:21:39;14.05;;;8.05;;
22332;SDS011;11334;36.986;-121.936;2023-05-18T07:24:05;10.25;;;7.55;;
22332;SDS011;11334;36.986;-121.936;2023-05-18T07:26:31;9.75;;;7.88;;
22332;SDS011;11334;36.986;-121.936;2023-05-18T07:28:57;13.90;;;7.82;;
22332;SDS011;11334;36.986;-121.936;2023-05-18T07:31:24;14.85;;;8.05;;
22332;SDS011;11334;36.986;-121.936;2023-05-18T07:33:51;13.88;;;8.55;;
22332;SDS011;11334;36.986;-121.936;2023-05-18T07:36:17;15.70;;;8.73;;
22332;SDS011;11334;36.986;-121.936;2023-05-18T07:38:43;18.02;;;8.73;;
22332;SDS011;11334;36.986;-121.936;2023-05-18T07:41:10;13.27;;;9.27;;
22332;SDS011;11334;36.986;-121.936;2023-05-18T07:43:36;14.95;;;8.75;;
22332;SDS011;11334;36.986;-121.936;2023-05-18T07:46:02;14.15;;;8.35;;
22332;SDS011;11334;36.986;-121.936;2023-05-18T07:48:29;16.85;;;9.70;;
22332;SDS011;11334;36.986;-121.936;2023-05-18T07:50:55;13.02;;;9.35;;
22332;SDS011;11334;36.986;-121.936;2023-05-18T07:53:21;14.63;;;9.07;;
22332;SDS011;11334;36.986;-121.936;2023-05-18T07:55:47;16.92;;;9.38;;
22332;SDS011;11334;36.986;-121.936;2023-05-18T07:58:14;20.15;;;10.25;;
22332;SDS011;11334;36.986;-121.936;2023-05-18T08:00:40;17.98;;;9.82;;
22332;SDS011;11334;36.986;-121.936;2023-05-18T08:03:08;15.00;;;9.25;;
22332;SDS011;11334;36.986;-121.936;2023-05-18T08:05:34;15.02;;;8.68;;
22332;SDS011;11334;36.986;-121.936;2023-05-18T08:08:01;16.50;;;8.93;;
22332;SDS011;11334;36.986;-121.936;2023-05-18T08:10:27;14.85;;;8.77;;
22332;SDS011;11334;36.986;-121.936;2023-05-18T08:12:53;13.25;;;8.93;;
22332;SDS011;11334;36.986;-121.936;2023-05-18T08:15:20;19.13;;;8.60;;
22332;SDS011;11334;36.986;-121.936;2023-05-18T08:17:46;16.70;;;7.72;;
22332;SDS011;11334;36.986;-121.936;2023-05-18T08:20:12;10.73;;;7.75;;
22332;SDS011;11334;36.986;-121.936;2023-05-18T08:22:38;12.30;;;7.65;;
22332;SDS011;11334;36.986;-121.936;2023-05-18T08:25:05;9.98;;;7.65;;
22332;SDS011;11334;36.986;-121.936;2023-05-18T08:27:31;10.60;;;7.63;;
22332;SDS011;11334;36.986;-121.936;2023-05-18T08:29:58;11.98;;;7.57;;
22332;SDS011;11334;36.986;-121.936;2023-05-18T08:32:24;15.20;;;7.25;;
22332;SDS011;11334;36.986;-121.936;2023-05-18T08:34:50;14.18;;;7.75;;
22332;SDS011;11334;36.986;-121.936;2023-05-18T08:37:17;9.57;;;7.63;;
22332;SDS011;11334;36.986;-121.936;2023-05-18T08:39:43;10.35;;;6.68;;
22332;SDS011;11334;36.986;-121.936;2023-05-18T08:47:27;9.57;;;6.82;;
22332;SDS011;11334;36.986;-121.936;2023-05-18T08:49:55;10.43;;;6.85;;
22332;SDS011;11334;36.986;-121.936;2023-05-18T08:52:24;8.07;;;6.20;;
22332;SDS011;11334;36.986;-121.936;2023-05-18T08:54:52;7.82;;;6.32;;
22332;SDS011;11334;36.986;-121.936;2023-05-18T08:57:21;9.32;;;6.70;;
22332;SDS011;11334;36.986;-121.936;2023-05-18T08:59:48;11.20;;;6.80;;
22332;SDS011;11334;36.986;-121.936;2023-05-18T09:02:17;8.65;;;6.70;;
22332;SDS011;11334;36.986;-121.936;2023-05-18T09:04:44;7.25;;;6.47;;
22332;SDS011;11334;36.986;-121.936;2023-05-18T09:07:12;6.82;;;6.13;;
22332;SDS011;11334;36.986;-121.936;2023-05-18T09:09:39;10.13;;;6.45;;
22332;SDS011;11334;36.986;-121.936;2023-05-18T09:12:05;9.43;;;6.43;;
22332;SDS011;11334;36.986;-121.936;2023-05-18T09:14:33;7.32;;;5.95;;
22332;SDS011;11334;36.986;-121.936;2023-05-18T09:16:59;7.78;;;6.53;;
22332;SDS011;11334;36.986;-121.936;2023-05-18T09:19:25;8.63;;;6.10;;
22332;SDS011;11334;36.986;-121.936;2023-05-18T09:21:52;7.22;;;6.20;;
22332;SDS011;11334;36.986;-121.936;2023-05-18T09:24:19;7.50;;;6.47;;
22332;SDS011;11334;36.986;-121.936;2023-05-18T09:26:46;6.85;;;5.35;;
22332;SDS011;11334;36.986;-121.936;2023-05-18T09:29:16;7.47;;;6.22;;
22332;SDS011;11334;36.986;-121.936;2023-05-18T09:31:44;6.78;;;5.78;;
22332;SDS011;11334;36.986;-121.936;2023-05-18T09:34:12;10.13;;;6.63;;
22332;SDS011;11334;36.986;-121.936;2023-05-18T09:36:46;6.63;;;6.00;;
22332;SDS011;11334;36.986;-121.936;2023-05-18T09:39:17;10.82;;;6.53;;
22332;SDS011;11334;36.986;-121.936;2023-05-18T09:41:43;9.02;;;6.20;;
22332;SDS011;11334;36.986;-121.936;2023-05-18T09:44:09;7.78;;;5.22;;
22332;SDS011;11334;36.986;-121.936;2023-05-18T09:46:37;6.97;;;5.65;;
22332;SDS011;11334;36.986;-121.936;2023-05-18T09:49:05;7.40;;;5.85;;
22332;SDS011;11334;36.986;-121.936;2023-05-18T09:51:35;5.25;;;4.75;;
22332;SDS011;11334;36.986;-121.936;2023-05-18T09:54:06;6.03;;;5.43;;
22332;SDS011;11334;36.986;-121.936;2023-05-18T09:56:35;5.65;;;4.72;;
22332;SDS011;11334;36.986;-121.936;2023-05-18T09:59:12;6.32;;;5.05;;
22332;SDS011;11334;36.986;-121.936;2023-05-18T10:01:58;6.07;;;5.57;;
22332;SDS011;11334;36.986;-121.936;2023-05-18T10:07:01;5.70;;;4.40;;
22332;SDS011;11334;36.986;-121.936;2023-05-18T10:09:27;6.18;;;5.38;;
22332;SDS011;11334;36.986;-121.936;2023-05-18T10:11:53;6.15;;;4.80;;
22332;SDS011;11334;36.986;-121.936;2023-05-18T10:14:23;5.18;;;4.55;;
22332;SDS011;11334;36.986;-121.936;2023-05-18T10:16:52;6.38;;;4.70;;
22332;SDS011;11334;36.986;-121.936;2023-05-18T10:19:19;6.88;;;5.07;;
22332;SDS011;11334;36.986;-121.936;2023-05-18T10:21:46;14.30;;;5.65;;
22332;SDS011;11334;36.986;-121.936;2023-05-18T10:24:14;10.70;;;5.43;;
22332;SDS011;11334;36.986;-121.936;2023-05-18T10:26:45;9.13;;;5.80;;
22332;SDS011;11334;36.986;-121.936;2023-05-18T10:29:13;6.50;;;5.57;;
22332;SDS011;11334;36.986;-121.936;2023-05-18T10:31:41;5.55;;;4.95;;
22332;SDS011;11334;36.986;-121.936;2023-05-18T10:34:09;6.85;;;4.93;;
22332;SDS011;11334;36.986;-121.936;2023-05-18T10:36:36;8.73;;;5.50;;
22332;SDS011;11334;36.986;-121.936;2023-05-18T10:39:03;6.82;;;5.57;;
22332;SDS011;11334;36.986;-121.936;2023-05-18T10:41:30;5.72;;;4.10;;
22332;SDS011;11334;36.986;-121.936;2023-05-18T10:43:59;6.25;;;4.68;;
22332;SDS011;11334;36.986;-121.936;2023-05-18T10:46:28;5.57;;;4.72;;
22332;SDS011;11334;36.986;-121.936;2023-05-18T10:48:56;5.20;;;4.40;;
22332;SDS011;11334;36.986;-121.936;2023-05-18T10:51:24;9.10;;;4.93;;
22332;SDS011;11334;36.986;-121.936;2023-05-18T10:53:51;4.80;;;4.30;;
22332;SDS011;11334;36.986;-121.936;2023-05-18T10:56:19;8.20;;;5.18;;
22332;SDS011;11334;36.986;-121.936;2023-05-18T10:58:45;6.20;;;4.60;;
22332;SDS011;11334;36.986;-121.936;2023-05-18T11:01:12;7.55;;;4.65;;
22332;SDS011;11334;36.986;-121.936;2023-05-18T11:03:38;5.40;;;4.90;;
22332;SDS011;11334;36.986;-121.936;2023-05-18T11:06:09;6.63;;;4.47;;
22332;SDS011;11334;36.986;-121.936;2023-05-18T11:08:46;9.68;;;5.43;;
22332;SDS011;11334;36.986;-121.936;2023-05-18T11:11:13;5.47;;;4.97;;
22332;SDS011;11334;36.986;-121.936;2023-05-18T11:13:44;8.88;;;5.20;;
22332;SDS011;11334;36.986;-121.936;2023-05-18T11:16:14;5.38;;;4.60;;
22332;SDS011;11334;36.986;-121.936;2023-05-18T11:18:45;7.30;;;4.38;;
22332;SDS011;11334;36.986;-121.936;2023-05-18T11:26:53;5.88;;;3.63;;
22332;SDS011;11334;36.986;-121.936;2023-05-18T11:29:22;5.53;;;3.97;;
22332;SDS011;11334;36.986;-121.936;2023-05-18T11:31:54;7.90;;;3.92;;
22332;SDS011;11334;36.986;-121.936;2023-05-18T11:37:13;9.10;;;4.82;;
22332;SDS011;11334;36.986;-121.936;2023-05-18T11:39:41;7.97;;;4.85;;
22332;SDS011;11334;36.986;-121.936;2023-05-18T11:42:19;5.72;;;4.45;;
22332;SDS011;11334;36.986;-121.936;2023-05-18T11:44:51;7.57;;;4.80;;
22332;SDS011;11334;36.986;-121.936;2023-05-18T11:47:22;6.85;;;5.40;;
22332;SDS011;11334;36.986;-121.936;2023-05-18T11:49:58;5.95;;;4.97;;
22332;SDS011;11334;36.986;-121.936;2023-05-18T11:52:25;7.68;;;5.00;;
22332;SDS011;11334;36.986;-121.936;2023-05-18T11:54:52;10.57;;;5.82;;
22332;SDS011;11334;36.986;-121.936;2023-05-18T12:00:00;7.07;;;5.43;;
22332;SDS011;11334;36.986;-121.936;2023-05-18T12:02:32;6.63;;;5.45;;
22332;SDS011;11334;36.986;-121.936;2023-05-18T12:05:00;9.65;;;6.40;;
22332;SDS011;11334;36.986;-121.936;2023-05-18T12:07:28;8.02;;;5.20;;
22332;SDS011;11334;36.986;-121.936;2023-05-18T12:10:02;7.53;;;6.15;;
22332;SDS011;11334;36.986;-121.936;2023-05-18T12:12:31;6.60;;;5.93;;
22332;SDS011;11334;36.986;-121.936;2023-05-18T12:14:59;6.35;;;5.53;;
22332;SDS011;11334;36.986;-121.936;2023-05-18T12:17:42;7.22;;;6.10;;
22332;SDS011;11334;36.986;-121.936;2023-05-18T12:20:10;7.55;;;5.85;;
22332;SDS011;11334;36.986;-121.936;2023-05-18T12:22:40;8.10;;;5.35;;
22332;SDS011;11334;36.986;-121.936;2023-05-18T12:25:08;8.07;;;6.22;;
22332;SDS011;11334;36.986;-121.936;2023-05-18T12:27:38;6.53;;;5.68;;
22332;SDS011;11334;36.986;-121.936;2023-05-18T12:30:08;9.35;;;6.22;;
22332;SDS011;11334;36.986;-121.936;2023-05-18T12:32:42;6.53;;;5.80;;
22332;SDS011;11334;36.986;-121.936;2023-05-18T12:35:10;7.93;;;5.70;;
22332;SDS011;11334;36.986;-121.936;2023-05-18T12:37:45;7.13;;;5.85;;
22332;SDS011;11334;36.986;-121.936;2023-05-18T12:40:12;8.27;;;6.15;;
22332;SDS011;11334;36.986;-121.936;2023-05-18T12:42:49;7.20;;;5.80;;
22332;SDS011;11334;36.986;-121.936;2023-05-18T12:45:17;7.43;;;6.03;;
22332;SDS011;11334;36.986;-121.936;2023-05-18T12:47:46;8.50;;;5.90;;
22332;SDS011;11334;36.986;-121.936;2023-05-18T12:50:18;7.15;;;6.43;;
22332;SDS011;11334;36.986;-121.936;2023-05-18T12:52:50;11.40;;;6.70;;
22332;SDS011;11334;36.986;-121.936;2023-05-18T12:55:17;9.85;;;7.40;;
22332;SDS011;11334;36.986;-121.936;2023-05-18T12:58:02;11.35;;;7.38;;
22332;SDS011;11334;36.986;-121.936;2023-05-18T13:00:31;10.57;;;7.30;;
22332;SDS011;11334;36.986;-121.936;2023-05-18T13:03:04;14.93;;;8.38;;
22332;SDS011;11334;36.986;-121.936;2023-05-18T13:05:31;10.85;;;7.85;;
22332;SDS011;11334;36.986;-121.936;2023-05-18T13:07:57;14.70;;;9.15;;
22332;SDS011;11334;36.986;-121.936;2023-05-18T13:10:24;12.77;;;8.50;;
22332;SDS011;11334;36.986;-121.936;2023-05-18T13:12:56;10.85;;;7.95;;
22332;SDS011;11334;36.986;-121.936;2023-05-18T13:15:37;12.30;;;7.97;;
22332;SDS011;11334;36.986;-121.936;2023-05-18T13:18:05;16.35;;;8.60;;
22332;SDS011;11334;36.986;-121.936;2023-05-18T13:20:40;12.07;;;8.45;;
22332;SDS011;11334;36.986;-121.936;2023-05-18T13:23:10;13.82;;;8.93;;
22332;SDS011;11334;36.986;-121.936;2023-05-18T13:25:39;10.25;;;8.65;;
22332;SDS011;11334;36.986;-121.936;2023-05-18T13:28:06;12.88;;;8.95;;
22332;SDS011;11334;36.986;-121.936;2023-05-18T13:30:36;9.95;;;7.60;;
22332;SDS011;11334;36.986;-121.936;2023-05-18T13:33:04;14.98;;;9.38;;
22332;SDS011;11334;36.986;-121.936;2023-05-18T13:35:32;12.73;;;8.80;;
22332;SDS011;11334;36.986;-121.936;2023-05-18T13:37:59;10.43;;;7.55;;
22332;SDS011;11334;36.986;-121.936;2023-05-18T13:40:25;11.98;;;8.80;;
22332;SDS011;11334;36.986;-121.936;2023-05-18T13:42:51;11.10;;;8.70;;
22332;SDS011;11334;36.986;-121.936;2023-05-18T13:45:18;12.07;;;9.13;;
22332;SDS011;11334;36.986;-121.936;2023-05-18T13:47:47;10.32;;;8.30;;
22332;SDS011;11334;36.986;-121.936;2023-05-18T13:50:18;11.10;;;8.82;;
22332;SDS011;11334;36.986;-121.936;2023-05-18T13:52:45;12.15;;;9.10;;
22332;SDS011;11334;36.986;-121.936;2023-05-18T13:55:12;10.77;;;8.95;;
22332;SDS011;11334;36.986;-121.936;2023-05-18T13:57:38;13.02;;;9.35;;
22332;SDS011;11334;36.986;-121.936;2023-05-18T14:00:05;14.05;;;8.80;;
22332;SDS011;11334;36.986;-121.936;2023-05-18T14:02:40;10.55;;;8.18;;
22332;SDS011;11334;36.986;-121.936;2023-05-18T14:05:08;18.95;;;9.18;;
22332;SDS011;11334;36.986;-121.936;2023-05-18T14:07:35;13.13;;;9.68;;
22332;SDS011;11334;36.986;-121.936;2023-05-18T14:10:02;16.00;;;9.30;;
22332;SDS011;11334;36.986;-121.936;2023-05-18T14:12:29;12.35;;;9.07;;
22332;SDS011;11334;36.986;-121.936;2023-05-18T14:14:56;14.40;;;9.48;;
22332;SDS011;11334;36.986;-121.936;2023-05-18T14:17:23;14.05;;;10.45;;
22332;SDS011;11334;36.986;-121.936;2023-05-18T14:19:49;15.85;;;10.70;;
22332;SDS011;11334;36.986;-121.936;2023-05-18T14:22:15;12.65;;;8.48;;
22332;SDS011;11334;36.986;-121.936;2023-05-18T14:24:43;12.35;;;9.75;;
22332;SDS011;11334;36.986;-121.936;2023-05-18T14:27:09;16.15;;;9.85;;
22332;SDS011;11334;36.986;-121.936;2023-05-18T14:29:35;15.00;;;10.40;;